Time;durP1;ratioP1;P1;durP2;ratioP2;P2;SDS_P1;SDS_P2;PMS_P1;PMS_P2;Temp;Humidity;BMP_temperature;BMP_pressure;BME280_temperature;BME280_humidity;BME280_pressure;Samples;Min_cycle;Max_cycle;Signal;HPM_P1;HPM_P2
2023/01/01 00:01:48;;;;;;;19.95;9.68;;;13.50;99.90;;;;;;5074056;28;20060;-90
2023/01/01 00:04:15;;;;;;;27.55;12.45;;;13.40;99.90;;;;;;5058039;28;20041;-90
2023/01/01 00:06:42;;;;;;;30.15;14.88;;;13.30;99.90;;;;;;5093473;28;20122;-89
2023/01/01 00:11:54;;;;;;;18.27;9.10;;;13.20;99.90;;;;;;5126541;28;20051;-89
2023/01/01 00:14:21;;;;;;;22.42;11.02;;;13.10;99.90;;;;;;5093989;28;21114;-89
2023/01/01 00:16:48;;;;;;;26.33;8.45;;;13.00;99.90;;;;;;5073680;28;20557;-88
2023/01/01 00:19:14;;;;;;;16.05;8.07;;;12.90;99.90;;;;;;5107090;28;20041;-88
2023/01/01 00:21:41;;;;;;;18.77;10.90;;;12.90;99.90;;;;;;5106619;28;20481;-90
2023/01/01 00:24:08;;;;;;;20.35;8.02;;;12.80;99.90;;;;;;5090804;28;20076;-89
2023/01/01 00:26:35;;;;;;;17.27;8.60;;;12.80;99.90;;;;;;5089921;28;20040;-88
2023/01/01 00:29:02;;;;;;;19.90;8.45;;;12.70;99.90;;;;;;5107663;28;20052;-89
2023/01/01 00:31:30;;;;;;;19.33;9.10;;;12.70;99.90;;;;;;5106324;28;20055;-84
2023/01/01 00:33:57;;;;;;;22.45;9.20;;;12.60;99.90;;;;;;5090113;28;20405;-89
2023/01/01 00:36:27;;;;;;;17.55;9.82;;;12.50;99.90;;;;;;5072745;28;20039;-89
2023/01/01 00:38:54;;;;;;;25.42;10.48;;;12.50;99.90;;;;;;5099200;28;20036;-88
2023/01/01 00:41:22;;;;;;;24.20;12.38;;;12.40;99.90;;;;;;5110330;28;20127;-88
2023/01/01 00:43:48;;;;;;;26.70;13.52;;;12.40;99.90;;;;;;5127163;28;20770;-89
2023/01/01 00:46:15;;;;;;;26.88;14.55;;;12.40;99.90;;;;;;5092918;28;20095;-90
2023/01/01 00:48:42;;;;;;;28.92;15.25;;;12.30;99.90;;;;;;5090324;28;20028;-88
2023/01/01 00:51:09;;;;;;;28.30;16.20;;;12.30;99.90;;;;;;5073843;28;20049;-89
2023/01/01 00:53:36;;;;;;;28.98;17.10;;;12.30;99.90;;;;;;5073274;28;20032;-89
2023/01/01 00:56:03;;;;;;;32.03;17.95;;;12.30;99.90;;;;;;5106847;28;20044;-89
2023/01/01 00:58:30;;;;;;;29.80;19.05;;;12.30;99.90;;;;;;5075252;28;20043;-89
2023/01/01 01:00:56;;;;;;;36.28;20.73;;;12.20;99.90;;;;;;5089783;28;20045;-89
2023/01/01 01:03:27;;;;;;;37.50;20.85;;;12.20;99.90;;;;;;5105509;28;20044;-89
2023/01/01 01:05:57;;;;;;;36.97;21.17;;;12.20;99.90;;;;;;5073425;28;20570;-89
2023/01/01 01:08:28;;;;;;;35.10;17.95;;;12.20;99.90;;;;;;5107384;28;20036;-89
2023/01/01 01:11:02;;;;;;;33.90;17.95;;;12.20;99.90;;;;;;5107188;28;20408;-89
2023/01/01 01:13:29;;;;;;;28.90;15.90;;;12.30;99.90;;;;;;5094667;28;20063;-89
2023/01/01 01:15:55;;;;;;;29.23;15.95;;;12.30;99.90;;;;;;5076593;28;20044;-88
2023/01/01 01:18:22;;;;;;;28.42;14.95;;;12.30;99.90;;;;;;5090125;28;20040;-89
2023/01/01 01:20:51;;;;;;;26.88;14.77;;;12.40;99.90;;;;;;5073340;28;20037;-89
2023/01/01 01:23:18;;;;;;;30.08;14.45;;;12.40;99.90;;;;;;5090284;28;20043;-89
2023/01/01 01:25:46;;;;;;;28.63;15.50;;;12.50;99.90;;;;;;5089464;28;20158;-88
2023/01/01 01:28:13;;;;;;;27.02;15.23;;;12.50;99.90;;;;;;5106814;28;20566;-89
2023/01/01 01:30:40;;;;;;;30.73;15.95;;;12.60;99.90;;;;;;5089441;28;20044;-88
2023/01/01 01:33:07;;;;;;;30.85;15.50;;;12.60;99.90;;;;;;5073192;28;20136;-88
2023/01/01 01:35:34;;;;;;;28.40;15.00;;;12.70;99.90;;;;;;5089925;28;20076;-87
2023/01/01 01:38:01;;;;;;;28.55;14.80;;;12.70;99.90;;;;;;5089374;28;20083;-88
2023/01/01 01:40:28;;;;;;;24.33;14.25;;;12.70;99.90;;;;;;5073289;28;20481;-88
2023/01/01 01:42:55;;;;;;;23.85;15.13;;;12.70;99.90;;;;;;5072653;28;20087;-89
2023/01/01 01:45:22;;;;;;;24.95;15.10;;;12.70;99.90;;;;;;5073265;28;20512;-89
2023/01/01 01:47:55;;;;;;;31.77;16.75;;;12.70;99.90;;;;;;5072893;28;20044;-86
2023/01/01 01:50:25;;;;;;;32.15;17.00;;;12.60;99.90;;;;;;5089363;28;20047;-89
2023/01/01 01:53:01;;;;;;;30.80;17.25;;;12.60;99.90;;;;;;5091654;28;20037;-89
2023/01/01 01:55:31;;;;;;;34.10;17.77;;;12.50;99.90;;;;;;5109863;28;20566;-87
2023/01/01 01:57:58;;;;;;;36.53;18.67;;;12.40;99.90;;;;;;5109828;28;20037;-89
2023/01/01 02:00:25;;;;;;;35.00;17.67;;;12.40;99.90;;;;;;5093312;28;20040;-89
2023/01/01 02:03:03;;;;;;;31.08;17.35;;;12.30;99.90;;;;;;5092247;28;20044;-89
2023/01/01 02:05:30;;;;;;;31.70;17.55;;;12.30;99.90;;;;;;5092776;28;20048;-89
2023/01/01 02:07:58;;;;;;;30.50;16.77;;;12.30;99.90;;;;;;5092769;28;20070;-89
2023/01/01 02:10:27;;;;;;;31.30;15.43;;;12.30;99.90;;;;;;5102882;28;20066;-88
2023/01/01 02:12:53;;;;;;;28.50;16.92;;;12.40;99.90;;;;;;5097590;28;20048;-88
2023/01/01 02:15:25;;;;;;;28.20;14.40;;;12.40;99.90;;;;;;5092881;28;20040;-88
2023/01/01 02:18:01;;;;;;;31.58;16.98;;;12.40;99.90;;;;;;5092415;28;20040;-89
2023/01/01 02:20:33;;;;;;;32.28;16.23;;;12.40;99.90;;;;;;5118167;28;20118;-89
2023/01/01 02:23:21;;;;;;;31.40;16.20;;;12.50;99.90;;;;;;5129801;28;20039;-88
2023/01/01 02:25:56;;;;;;;28.77;14.73;;;12.40;99.90;;;;;;5112498;28;20491;-88
2023/01/01 02:28:47;;;;;;;29.25;14.57;;;12.40;99.90;;;;;;5112911;28;20044;-89
2023/01/01 02:31:20;;;;;;;31.67;12.93;;;12.40;99.90;;;;;;5128248;28;20040;-88
2023/01/01 02:33:49;;;;;;;25.10;13.50;;;12.50;99.90;;;;;;5098469;28;20076;-84
2023/01/01 02:36:18;;;;;;;28.95;14.10;;;12.50;99.90;;;;;;5092114;28;20131;-89
2023/01/01 02:38:51;;;;;;;27.48;13.23;;;12.50;99.90;;;;;;5076058;28;20048;-88
2023/01/01 02:41:26;;;;;;;30.67;14.07;;;12.50;99.90;;;;;;5092358;28;20033;-89
2023/01/01 02:43:53;;;;;;;23.95;13.13;;;12.50;99.90;;;;;;5092392;28;20043;-87
2023/01/01 02:46:20;;;;;;;20.98;12.23;;;12.50;99.90;;;;;;5075895;28;20131;-88
2023/01/01 02:48:49;;;;;;;26.95;12.98;;;12.50;99.90;;;;;;5075664;28;20087;-88
2023/01/01 02:51:57;;;;;;;27.88;11.25;;;12.60;99.90;;;;;;5097507;28;20063;-88
2023/01/01 02:54:45;;;;;;;16.67;10.18;;;12.60;99.90;;;;;;5082513;28;20106;-88
2023/01/01 02:57:14;;;;;;;24.42;10.85;;;12.70;99.90;;;;;;5111960;28;20055;-88
2023/01/01 03:03:39;;;;;;;20.42;9.48;;;12.70;99.90;;;;;;5049760;28;20061;-88
2023/01/01 03:06:23;;;;;;;24.33;9.43;;;12.80;99.90;;;;;;5128971;28;20044;-88
2023/01/01 03:09:29;;;;;;;21.58;9.13;;;12.80;99.90;;;;;;5112273;28;20043;-88
2023/01/01 03:12:38;;;;;;;18.27;8.90;;;12.80;99.90;;;;;;5127849;28;20036;-89
2023/01/01 03:15:26;;;;;;;21.98;9.45;;;12.80;99.90;;;;;;5111431;28;21062;-88
2023/01/01 03:18:11;;;;;;;17.60;8.05;;;12.80;99.90;;;;;;5111442;28;20043;-88
2023/01/01 03:20:43;;;;;;;17.48;8.43;;;12.80;99.90;;;;;;5111934;28;20413;-88
2023/01/01 03:23:15;;;;;;;20.55;7.75;;;12.80;99.90;;;;;;5126499;28;20032;-88
2023/01/01 03:25:48;;;;;;;19.05;7.57;;;12.80;99.90;;;;;;5111761;28;20120;-88
2023/01/01 03:28:26;;;;;;;14.45;7.25;;;12.80;99.90;;;;;;5111067;28;20055;-88
2023/01/01 03:30:54;;;;;;;14.70;7.22;;;12.90;99.90;;;;;;5112052;28;20066;-88
2023/01/01 03:33:29;;;;;;;23.15;7.57;;;12.80;99.90;;;;;;5128274;28;20044;-88
2023/01/01 03:36:06;;;;;;;15.65;7.22;;;12.80;99.90;;;;;;5110876;28;20036;-87
2023/01/01 03:38:51;;;;;;;14.30;6.47;;;12.90;99.90;;;;;;5111332;28;20408;-88
2023/01/01 03:41:33;;;;;;;23.27;6.32;;;12.90;99.90;;;;;;5128329;28;20051;-89
2023/01/01 03:44:10;;;;;;;16.77;6.63;;;13.00;99.90;;;;;;5110957;28;20067;-88
2023/01/01 03:46:37;;;;;;;17.33;5.60;;;13.00;99.90;;;;;;5128407;28;20054;-89
2023/01/01 03:49:06;;;;;;;13.68;4.40;;;13.10;99.90;;;;;;5111371;28;20050;-87
2023/01/01 03:51:52;;;;;;;16.17;4.68;;;13.20;99.90;;;;;;5111067;28;20032;-88
2023/01/01 03:54:37;;;;;;;14.35;4.78;;;13.20;99.90;;;;;;5099495;28;20127;-87
2023/01/01 03:57:42;;;;;;;14.18;4.25;;;13.20;99.90;;;;;;5107084;28;20048;-88
2023/01/01 04:00:15;;;;;;;13.13;3.65;;;13.20;99.90;;;;;;5095437;28;20048;-89
2023/01/01 04:02:55;;;;;;;13.10;4.00;;;13.20;99.90;;;;;;5090249;28;20045;-89
2023/01/01 04:05:23;;;;;;;9.57;3.85;;;13.20;99.90;;;;;;5107172;28;20040;-89
2023/01/01 04:07:51;;;;;;;11.98;4.47;;;13.20;99.90;;;;;;5074597;28;20091;-88
2023/01/01 04:10:19;;;;;;;11.27;3.85;;;13.10;99.90;;;;;;5074112;28;20040;-89
2023/01/01 04:12:52;;;;;;;16.63;4.20;;;13.10;99.90;;;;;;5073972;28;20082;-88
2023/01/01 04:15:21;;;;;;;8.55;3.53;;;13.00;99.90;;;;;;5089447;28;20044;-87
2023/01/01 04:17:48;;;;;;;12.82;4.18;;;13.00;99.90;;;;;;5107403;28;20047;-87
2023/01/01 04:20:16;;;;;;;13.55;4.55;;;12.90;99.90;;;;;;5093956;28;20039;-89
2023/01/01 04:22:43;;;;;;;13.85;3.97;;;12.80;99.90;;;;;;5110908;28;20047;-88
2023/01/01 04:25:10;;;;;;;16.95;4.35;;;12.80;99.90;;;;;;5093556;28;20040;-87
2023/01/01 04:27:38;;;;;;;13.23;4.22;;;12.60;99.90;;;;;;5110433;28;20458;-88
2023/01/01 04:30:08;;;;;;;10.18;4.20;;;12.50;99.90;;;;;;5093709;28;20040;-89
2023/01/01 04:32:34;;;;;;;12.10;3.97;;;12.50;99.90;;;;;;5127418;28;20047;-89
2023/01/01 04:35:01;;;;;;;12.57;4.72;;;12.40;99.90;;;;;;5107832;28;20040;-89
2023/01/01 04:37:28;;;;;;;18.33;4.80;;;12.30;99.90;;;;;;5073739;28;20040;-89
2023/01/01 04:39:55;;;;;;;12.45;4.97;;;12.20;99.90;;;;;;5090207;28;20041;-88
2023/01/01 04:42:21;;;;;;;19.25;5.07;;;12.10;99.90;;;;;;5073263;28;20045;-88
2023/01/01 04:44:48;;;;;;;15.77;5.07;;;12.00;99.90;;;;;;5089969;28;20819;-88
2023/01/01 04:47:18;;;;;;;12.55;4.93;;;11.90;99.90;;;;;;5088128;28;20052;-88
2023/01/01 04:49:44;;;;;;;16.23;5.10;;;11.80;99.90;;;;;;5090321;28;20052;-89
2023/01/01 04:52:11;;;;;;;16.08;4.70;;;11.80;99.90;;;;;;5073607;28;20038;-87
2023/01/01 04:54:38;;;;;;;15.27;4.93;;;11.70;99.90;;;;;;5090092;28;20071;-88
2023/01/01 04:57:04;;;;;;;20.88;5.05;;;11.70;99.90;;;;;;5072967;28;20084;-84
2023/01/01 04:59:31;;;;;;;12.88;4.63;;;11.70;99.90;;;;;;5106557;28;20097;-87
2023/01/01 05:01:58;;;;;;;11.70;3.97;;;11.60;99.90;;;;;;5089986;28;20128;-88
2023/01/01 05:04:24;;;;;;;12.63;4.13;;;11.70;99.90;;;;;;5106327;28;20690;-88
2023/01/01 05:06:51;;;;;;;16.63;3.97;;;11.60;99.90;;;;;;5073693;28;20136;-87
2023/01/01 05:09:18;;;;;;;10.05;3.03;;;11.70;99.90;;;;;;5073383;28;20040;-88
2023/01/01 05:11:45;;;;;;;9.68;2.67;;;11.70;99.90;;;;;;5073483;28;20143;-88
2023/01/01 05:14:11;;;;;;;11.43;2.95;;;11.80;99.90;;;;;;5089747;28;20045;-88
2023/01/01 05:16:39;;;;;;;13.40;2.85;;;11.80;99.90;;;;;;5073927;28;20036;-89
2023/01/01 05:19:07;;;;;;;10.57;3.17;;;11.80;99.90;;;;;;5109825;28;20040;-87
2023/01/01 05:21:38;;;;;;;10.45;2.45;;;11.90;99.90;;;;;;5076942;28;20059;-88
2023/01/01 05:24:07;;;;;;;7.95;2.58;;;12.00;99.90;;;;;;5109967;28;20044;-88
2023/01/01 05:26:40;;;;;;;8.07;2.55;;;12.00;99.90;;;;;;5095871;28;20516;-88
2023/01/01 05:29:07;;;;;;;14.05;2.47;;;12.00;99.90;;;;;;5094318;28;20119;-89
2023/01/01 05:31:35;;;;;;;11.45;2.67;;;12.00;99.90;;;;;;5093823;28;20094;-87
2023/01/01 05:34:03;;;;;;;14.32;2.63;;;12.00;99.90;;;;;;5094027;28;20036;-88
2023/01/01 05:36:37;;;;;;;13.75;2.90;;;12.00;99.90;;;;;;5105735;28;20496;-87
2023/01/01 05:39:06;;;;;;;7.40;1.95;;;12.10;99.90;;;;;;5114199;28;20036;-88
2023/01/01 05:41:35;;;;;;;6.80;2.65;;;12.10;99.90;;;;;;5097116;28;20408;-89
2023/01/01 05:44:03;;;;;;;13.88;2.97;;;12.10;99.90;;;;;;5130772;28;20036;-88
2023/01/01 05:46:31;;;;;;;10.13;2.03;;;12.10;99.90;;;;;;5080132;28;20085;-87
2023/01/01 05:48:57;;;;;;;8.57;2.13;;;12.10;99.90;;;;;;5113987;28;20119;-89
2023/01/01 05:51:26;;;;;;;9.35;1.83;;;12.10;99.90;;;;;;5113262;28;20110;-88
2023/01/01 05:53:54;;;;;;;8.35;1.85;;;12.20;99.90;;;;;;5130438;28;20032;-89
2023/01/01 05:56:21;;;;;;;9.73;2.17;;;12.30;99.90;;;;;;5113060;28;20043;-87
2023/01/01 05:58:48;;;;;;;8.43;2.10;;;12.40;99.90;;;;;;5079991;28;20032;-87
2023/01/01 06:01:19;;;;;;;6.70;1.80;;;12.40;99.90;;;;;;5080074;28;20362;-88
2023/01/01 06:03:47;;;;;;;10.02;2.00;;;12.40;99.90;;;;;;5113755;28;20040;-88
2023/01/01 06:06:17;;;;;;;7.03;1.80;;;12.40;99.90;;;;;;5113065;28;20036;-88
2023/01/01 06:08:55;;;;;;;9.07;1.80;;;12.30;99.90;;;;;;5111512;28;20044;-88
2023/01/01 06:11:25;;;;;;;6.57;1.58;;;12.30;99.90;;;;;;5112728;28;20086;-88
2023/01/01 06:13:56;;;;;;;8.57;1.67;;;12.30;99.90;;;;;;5096790;28;20089;-89
2023/01/01 06:16:24;;;;;;;6.93;1.48;;;12.30;99.90;;;;;;5113338;28;20044;-88
2023/01/01 06:18:51;;;;;;;6.68;2.08;;;12.30;99.90;;;;;;5112743;28;20047;-88
2023/01/01 06:21:21;;;;;;;11.10;1.95;;;12.30;99.90;;;;;;5091219;28;20484;-89
2023/01/01 06:23:47;;;;;;;7.90;2.03;;;12.30;99.90;;;;;;5092668;28;20075;-89
2023/01/01 06:26:20;;;;;;;8.18;1.67;;;12.20;99.90;;;;;;5092493;28;20080;-87
2023/01/01 06:28:48;;;;;;;7.40;1.50;;;12.30;99.90;;;;;;5093058;28;20040;-89
2023/01/01 06:31:16;;;;;;;7.90;1.35;;;12.30;99.90;;;;;;5109689;28;20548;-88
2023/01/01 06:33:43;;;;;;;5.35;1.30;;;12.20;99.90;;;;;;5076316;28;20048;-88
2023/01/01 06:36:12;;;;;;;5.20;1.35;;;12.20;99.90;;;;;;5092454;28;20043;-88
2023/01/01 06:38:41;;;;;;;3.30;0.95;;;12.20;99.90;;;;;;5108205;28;20040;-88
2023/01/01 06:41:14;;;;;;;3.47;1.10;;;12.20;99.90;;;;;;5092284;28;20040;-88
2023/01/01 06:43:41;;;;;;;3.55;1.10;;;12.20;99.90;;;;;;5109060;28;20090;-88
2023/01/01 06:46:18;;;;;;;6.38;1.23;;;12.20;99.90;;;;;;5075828;28;20040;-88
2023/01/01 06:48:48;;;;;;;4.47;1.00;;;12.20;99.90;;;;;;5092163;28;20075;-88
2023/01/01 06:51:18;;;;;;;6.07;1.00;;;12.20;99.90;;;;;;5102700;28;20075;-88
2023/01/01 06:53:46;;;;;;;3.47;1.10;;;12.10;99.90;;;;;;5112178;28;20043;-87
2023/01/01 06:56:13;;;;;;;4.80;1.10;;;12.10;99.90;;;;;;5112413;28;20055;-89
2023/01/01 06:58:40;;;;;;;6.93;1.25;;;12.10;99.90;;;;;;5128925;28;20044;-88
2023/01/01 07:01:12;;;;;;;4.63;1.20;;;12.10;99.90;;;;;;5111412;28;20069;-89
2023/01/01 07:03:39;;;;;;;11.80;1.02;;;12.00;99.90;;;;;;5128469;28;20048;-86
2023/01/01 07:06:07;;;;;;;4.88;1.00;;;12.00;99.90;;;;;;5112342;28;20051;-88
2023/01/01 07:08:34;;;;;;;4.25;1.10;;;12.10;99.90;;;;;;5111863;28;20431;-89
2023/01/01 07:11:02;;;;;;;4.57;0.95;;;12.10;99.90;;;;;;5091930;28;20094;-87
2023/01/01 07:13:29;;;;;;;6.20;1.30;;;12.00;99.90;;;;;;5091783;28;20044;-87
2023/01/01 07:15:56;;;;;;;5.80;1.30;;;12.00;99.90;;;;;;5075297;28;20117;-88
2023/01/01 07:18:24;;;;;;;3.97;0.90;;;11.90;99.90;;;;;;5075177;28;20037;-84
2023/01/01 07:20:56;;;;;;;4.40;0.90;;;11.90;99.90;;;;;;5091813;28;20480;-88
2023/01/01 07:23:24;;;;;;;4.28;1.00;;;11.90;99.90;;;;;;5102062;28;20039;-89
2023/01/01 07:25:52;;;;;;;5.38;0.95;;;11.90;99.90;;;;;;5095249;28;20040;-88
2023/01/01 07:28:20;;;;;;;4.60;1.15;;;11.90;99.90;;;;;;5111889;28;20040;-89
2023/01/01 07:30:47;;;;;;;11.75;1.58;;;11.90;99.90;;;;;;5094779;28;20492;-88
2023/01/01 07:33:16;;;;;;;6.35;1.40;;;11.80;99.90;;;;;;5096266;28;20106;-87
2023/01/01 07:35:44;;;;;;;6.32;0.93;;;11.80;99.90;;;;;;5090988;28;20516;-88
2023/01/01 07:38:12;;;;;;;9.25;1.40;;;11.80;99.90;;;;;;5091400;28;20473;-87
2023/01/01 07:40:39;;;;;;;7.80;1.50;;;11.80;99.90;;;;;;5091129;28;20032;-88
2023/01/01 07:43:06;;;;;;;5.22;1.35;;;11.70;99.90;;;;;;5082622;28;20039;-88
2023/01/01 07:45:33;;;;;;;7.47;1.35;;;11.70;99.90;;;;;;5110780;28;20039;-88
2023/01/01 07:48:01;;;;;;;9.55;1.38;;;11.70;99.90;;;;;;5110982;28;20040;-88
2023/01/01 07:50:30;;;;;;;9.88;1.30;;;11.70;99.90;;;;;;5110589;28;20048;-85
2023/01/01 07:52:57;;;;;;;6.97;1.40;;;11.70;99.90;;;;;;5115224;28;20123;-87
2023/01/01 07:55:24;;;;;;;6.90;1.20;;;11.60;99.90;;;;;;5109152;28;20040;-88
2023/01/01 07:57:51;;;;;;;8.13;1.38;;;11.60;99.90;;;;;;5095513;28;20511;-86
2023/01/01 08:00:20;;;;;;;5.90;1.55;;;11.60;99.90;;;;;;5099565;28;20035;-88
2023/01/01 08:02:47;;;;;;;9.00;1.38;;;11.60;99.90;;;;;;5113508;28;20054;-88
2023/01/01 08:05:14;;;;;;;8.88;1.52;;;11.60;99.90;;;;;;5148237;28;20044;-88
2023/01/01 08:07:48;;;;;;;6.97;1.63;;;11.60;99.90;;;;;;5121777;28;20050;-87
2023/01/01 08:10:16;;;;;;;9.40;1.45;;;11.60;99.90;;;;;;5113976;28;20047;-87
2023/01/01 08:12:43;;;;;;;6.75;1.30;;;11.50;99.90;;;;;;5148241;28;20054;-87
2023/01/01 08:15:10;;;;;;;9.95;1.75;;;11.50;99.90;;;;;;5098336;28;20043;-88
2023/01/01 08:17:39;;;;;;;7.72;1.48;;;11.50;99.90;;;;;;5132403;28;20131;-87
2023/01/01 08:20:06;;;;;;;6.90;1.50;;;11.40;99.90;;;;;;5131328;28;20039;-87
2023/01/01 08:22:33;;;;;;;7.93;2.13;;;11.40;99.90;;;;;;5113840;28;20503;-87
2023/01/01 08:25:00;;;;;;;7.18;1.65;;;11.40;99.90;;;;;;5102061;28;20036;-87
2023/01/01 08:27:26;;;;;;;10.70;1.65;;;11.40;99.90;;;;;;5086117;28;20039;-88
2023/01/01 08:29:53;;;;;;;6.88;1.30;;;11.40;99.90;;;;;;5089975;28;20053;-87
2023/01/01 08:32:20;;;;;;;11.23;1.88;;;11.40;99.90;;;;;;5124912;28;20512;-88
2023/01/01 08:34:46;;;;;;;8.93;1.80;;;11.50;99.90;;;;;;5110921;28;20097;-87
2023/01/01 08:37:13;;;;;;;7.60;1.55;;;11.50;99.90;;;;;;5110169;28;20089;-87
2023/01/01 08:39:40;;;;;;;11.40;2.25;;;11.50;99.90;;;;;;5077271;28;20028;-87
2023/01/01 08:42:07;;;;;;;6.80;1.67;;;11.50;99.90;;;;;;5084897;28;20043;-87
2023/01/01 08:44:33;;;;;;;6.65;1.38;;;11.40;99.90;;;;;;5083014;28;20033;-87
2023/01/01 08:47:00;;;;;;;15.35;1.88;;;11.50;99.90;;;;;;5089844;28;20040;-87
2023/01/01 08:49:27;;;;;;;6.20;1.33;;;11.40;99.90;;;;;;5079424;28;20492;-88
2023/01/01 08:51:53;;;;;;;11.20;1.80;;;11.40;99.90;;;;;;5110055;28;20496;-88
2023/01/01 08:54:20;;;;;;;12.63;2.03;;;11.40;99.90;;;;;;5077249;28;20040;-87
2023/01/01 08:56:47;;;;;;;12.27;2.22;;;11.40;99.90;;;;;;5061272;28;20046;-86
2023/01/01 08:59:13;;;;;;;13.20;2.08;;;11.40;99.90;;;;;;5090143;28;20036;-88
2023/01/01 09:01:40;;;;;;;7.22;1.92;;;11.40;99.90;;;;;;5110239;28;20036;-88
2023/01/01 09:04:11;;;;;;;14.45;2.00;;;11.40;99.90;;;;;;5117759;28;20084;-87
2023/01/01 09:06:38;;;;;;;10.32;1.77;;;11.40;99.90;;;;;;5091278;28;20047;-84
2023/01/01 09:09:04;;;;;;;17.35;2.00;;;11.40;99.90;;;;;;5123028;28;20036;-87
2023/01/01 09:11:31;;;;;;;7.15;2.25;;;11.40;99.90;;;;;;5081497;28;20043;-87
2023/01/01 09:13:58;;;;;;;12.63;2.03;;;11.40;99.90;;;;;;5112415;28;20055;-88
2023/01/01 09:16:25;;;;;;;7.97;2.38;;;11.40;99.90;;;;;;5102894;28;20074;-87
2023/01/01 09:18:52;;;;;;;9.07;1.90;;;11.40;99.90;;;;;;5098444;28;20036;-88
2023/01/01 09:21:19;;;;;;;9.88;1.88;;;11.40;99.90;;;;;;5098282;28;20401;-88
2023/01/01 09:23:46;;;;;;;10.07;1.80;;;11.40;99.90;;;;;;5128323;28;20051;-88
2023/01/01 09:26:12;;;;;;;10.50;2.13;;;11.40;99.90;;;;;;5124976;28;20036;-88
2023/01/01 09:28:39;;;;;;;8.88;1.63;;;11.40;99.90;;;;;;5104002;28;20051;-83
2023/01/01 09:31:06;;;;;;;10.32;1.92;;;11.40;99.90;;;;;;5100357;28;20051;-87
2023/01/01 09:33:33;;;;;;;11.85;2.05;;;11.40;99.90;;;;;;5118452;28;20043;-87
2023/01/01 09:36:31;;;;;;;12.27;2.42;;;11.40;99.90;;;;;;5098201;28;20700;-88
2023/01/01 09:38:59;;;;;;;7.68;1.73;;;11.40;99.90;;;;;;5095952;28;20044;-88
2023/01/01 09:41:54;;;;;;;8.70;1.95;;;11.40;99.90;;;;;;5119094;28;20434;-87
2023/01/01 09:44:29;;;;;;;10.82;1.80;;;11.40;99.90;;;;;;5115959;28;20039;-88
2023/01/01 09:47:00;;;;;;;13.52;1.70;;;11.50;99.90;;;;;;5115044;28;20551;-87
2023/01/01 09:49:36;;;;;;;15.63;2.00;;;11.40;99.90;;;;;;5116771;28;20036;-89
2023/01/01 09:52:04;;;;;;;12.73;2.47;;;11.40;99.90;;;;;;5111141;28;20031;-89
2023/01/01 09:54:50;;;;;;;11.25;2.20;;;11.40;99.90;;;;;;5108491;28;20044;-88
2023/01/01 09:57:17;;;;;;;10.43;1.63;;;11.50;99.90;;;;;;5133435;28;20166;-89
2023/01/01 09:59:44;;;;;;;10.60;1.70;;;11.40;99.90;;;;;;5099391;28;20086;-88
2023/01/01 10:02:45;;;;;;;11.68;1.60;;;11.50;99.90;;;;;;5099750;28;20087;-89
2023/01/01 10:05:43;;;;;;;11.00;2.13;;;11.50;99.90;;;;;;5115824;28;20044;-89
2023/01/01 10:08:26;;;;;;;11.63;2.00;;;11.50;99.90;;;;;;5108774;28;20044;-89
2023/01/01 10:11:15;;;;;;;11.52;2.03;;;11.50;99.90;;;;;;5114055;28;20131;-89
2023/01/01 10:13:44;;;;;;;8.93;1.42;;;11.50;99.90;;;;;;5108782;28;20412;-89
2023/01/01 10:16:39;;;;;;;12.52;2.20;;;11.40;99.90;;;;;;5092919;28;20102;-90
2023/01/01 10:19:33;;;;;;;13.00;2.20;;;11.40;99.90;;;;;;5103241;28;20126;-90
2023/01/01 10:22:09;;;;;;;12.20;2.20;;;11.50;99.90;;;;;;5111163;28;20036;-88
2023/01/01 10:24:46;;;;;;;12.32;2.10;;;11.40;99.90;;;;;;5125734;28;20044;-89
2023/01/01 10:27:27;;;;;;;14.48;2.05;;;11.40;99.90;;;;;;5129170;28;20122;-88
2023/01/01 10:29:53;;;;;;;11.00;2.50;;;11.40;99.90;;;;;;5129515;28;20051;-89
2023/01/01 10:32:33;;;;;;;10.10;2.00;;;11.40;99.90;;;;;;5096416;28;20040;-89
2023/01/01 10:35:02;;;;;;;10.73;1.95;;;11.40;99.90;;;;;;5112242;28;20055;-89
2023/01/01 10:37:35;;;;;;;7.65;1.55;;;11.30;99.90;;;;;;5102206;28;20036;-88
2023/01/01 10:40:12;;;;;;;14.32;2.20;;;11.30;99.90;;;;;;5126126;28;20046;-88
2023/01/01 10:42:39;;;;;;;15.68;2.53;;;11.30;99.90;;;;;;5095778;28;20064;-88
2023/01/01 10:45:13;;;;;;;14.60;2.13;;;11.30;99.90;;;;;;5100446;28;20062;-88
2023/01/01 10:48:09;;;;;;;10.43;2.03;;;11.30;99.90;;;;;;5122775;28;20507;-89
2023/01/01 10:50:40;;;;;;;;;;;11.30;99.90;;;;;;5126898;28;20092;-89
2023/01/01 10:53:19;;;;;;;13.45;2.15;;;11.30;99.90;;;;;;5117502;28;19920;-89
2023/01/01 10:56:01;;;;;;;9.70;2.08;;;11.30;99.90;;;;;;5128978;28;20051;-85
2023/01/01 10:58:48;;;;;;;11.45;2.05;;;11.20;99.90;;;;;;5112142;28;20039;-89
2023/01/01 11:01:19;;;;;;;14.73;2.50;;;11.30;99.90;;;;;;5095733;28;20032;-88
2023/01/01 11:03:53;;;;;;;7.40;1.70;;;11.20;99.90;;;;;;5128734;28;20056;-89
2023/01/01 11:06:30;;;;;;;11.48;1.92;;;11.20;99.90;;;;;;5112113;28;20533;-89
2023/01/01 11:09:02;;;;;;;10.20;1.92;;;11.20;99.90;;;;;;5111764;28;20411;-89
2023/01/01 11:11:38;;;;;;;10.18;1.98;;;11.20;99.90;;;;;;5112022;28;20055;-89
2023/01/01 11:14:19;;;;;;;9.68;1.63;;;11.20;99.90;;;;;;5128721;28;20090;-89
2023/01/01 11:16:46;;;;;;;11.35;1.80;;;11.20;99.90;;;;;;5121027;28;20515;-87
2023/01/01 11:19:35;;;;;;;10.57;2.30;;;11.20;99.90;;;;;;5128120;28;20118;-88
2023/01/01 11:22:03;;;;;;;11.85;2.45;;;11.20;99.90;;;;;;5111291;28;20051;-88
2023/01/01 11:24:34;;;;;;;7.75;1.75;;;11.20;99.90;;;;;;5111399;28;20040;-88
2023/01/01 11:27:30;;;;;;;12.65;1.48;;;11.20;99.90;;;;;;5098532;28;20063;-88
2023/01/01 11:30:20;;;;;;;11.98;2.25;;;11.20;99.90;;;;;;5074889;28;20079;-86
2023/01/01 11:32:49;;;;;;;19.60;2.10;;;11.20;99.90;;;;;;5140940;28;20088;-88
2023/01/01 11:35:20;;;;;;;14.80;2.10;;;11.20;99.90;;;;;;5110405;28;20066;-88
2023/01/01 11:37:48;;;;;;;7.50;1.30;;;11.20;99.90;;;;;;5111442;28;20074;-88
2023/01/01 11:40:34;;;;;;;13.63;2.03;;;11.20;99.90;;;;;;5094296;28;20484;-88
2023/01/01 11:43:04;;;;;;;9.20;1.48;;;11.30;99.90;;;;;;5112928;28;20389;-88
2023/01/01 11:45:33;;;;;;;9.43;1.60;;;11.20;99.90;;;;;;5117390;28;20446;-85
2023/01/01 11:48:11;;;;;;;12.88;2.70;;;11.30;99.90;;;;;;5113335;28;20040;-88
2023/01/01 11:50:40;;;;;;;6.80;1.17;;;11.30;99.90;;;;;;5116456;28;20444;-88
2023/01/01 11:53:22;;;;;;;13.57;2.00;;;11.30;99.90;;;;;;5114588;28;20100;-88
2023/01/01 11:55:51;;;;;;;13.38;2.45;;;11.30;99.90;;;;;;5112249;28;20044;-87
2023/01/01 11:58:21;;;;;;;11.63;1.85;;;11.30;99.90;;;;;;5110606;28;20032;-88
2023/01/01 12:00:53;;;;;;;7.78;1.60;;;11.30;99.90;;;;;;5111113;28;20043;-88
2023/01/01 12:03:23;;;;;;;10.10;1.60;;;11.40;99.90;;;;;;5110275;28;20541;-87
2023/01/01 12:06:05;;;;;;;10.00;2.08;;;11.40;99.90;;;;;;5096628;28;20048;-88
2023/01/01 12:09:12;;;;;;;11.88;2.05;;;11.40;99.90;;;;;;5127408;28;20040;-88
2023/01/01 12:11:42;;;;;;;11.07;2.28;;;11.50;99.90;;;;;;5110401;28;20081;-87
2023/01/01 12:14:51;;;;;;;8.63;1.80;;;11.60;99.90;;;;;;5110057;28;20051;-88
2023/01/01 12:17:23;;;;;;;10.40;1.90;;;11.60;99.90;;;;;;5079289;28;20056;-88
2023/01/01 12:20:01;;;;;;;12.15;2.28;;;11.60;99.90;;;;;;5125697;28;20043;-87
2023/01/01 12:22:29;;;;;;;15.00;1.92;;;11.70;99.90;;;;;;5140724;28;20051;-87
2023/01/01 12:24:57;;;;;;;9.88;1.80;;;11.70;99.90;;;;;;5091929;28;20040;-88
2023/01/01 12:27:45;;;;;;;10.70;1.83;;;11.80;99.90;;;;;;5063370;28;20045;-87
2023/01/01 12:30:36;;;;;;;11.50;2.42;;;11.80;99.90;;;;;;5106813;28;20063;-88
2023/01/01 12:33:23;;;;;;;14.15;2.10;;;11.80;99.90;;;;;;5109732;28;20128;-88
2023/01/01 12:36:22;;;;;;;15.27;2.40;;;11.80;99.90;;;;;;5106316;28;20061;-87
2023/01/01 12:38:57;;;;;;;6.15;1.60;;;11.80;99.90;;;;;;5112443;28;20046;-88
2023/01/01 12:41:50;;;;;;;11.32;2.10;;;11.80;99.90;;;;;;5118514;28;20036;-87
2023/01/01 12:45:08;;;;;;;14.60;2.05;;;11.80;99.90;;;;;;5115688;28;20035;-88
2023/01/01 12:47:50;;;;;;;;;;;11.80;99.90;;;;;;5081187;28;20047;-88
2023/01/01 12:50:39;;;;;;;14.60;2.08;;;11.80;99.90;;;;;;5089422;28;19923;-88
2023/01/01 12:53:23;;;;;;;9.95;1.85;;;11.80;99.90;;;;;;5105873;28;20032;-87
2023/01/01 12:56:23;;;;;;;9.45;1.80;;;11.80;99.90;;;;;;5106158;28;20052;-88
2023/01/01 12:58:56;;;;;;;8.73;1.77;;;11.80;99.90;;;;;;5093414;28;20033;-87
2023/01/01 13:01:30;;;;;;;7.97;1.80;;;11.80;99.90;;;;;;5089299;28;20443;-87
2023/01/01 13:04:16;;;;;;;13.85;1.70;;;11.80;99.90;;;;;;5089302;28;20099;-86
2023/01/01 13:06:49;;;;;;;12.85;2.00;;;11.80;99.90;;;;;;5106742;28;20126;-88
2023/01/01 13:09:21;;;;;;;13.00;1.73;;;11.80;99.90;;;;;;5105924;28;20447;-87
2023/01/01 13:12:11;;;;;;;7.47;1.70;;;11.80;99.90;;;;;;5089866;28;20127;-88